Flight Track Log - Related Links

Times and Time Zones

All times are in EDT time to prevent confusion due to time zone crossing. See the DAL1515 flight status page for this flight to view local times or setup timezone preferences in your user account.

Time Position Orientation Groundspeed Altitude Reporting Facility
EDT Latitude Longitude Course Direction KTS MPH feet Rate Location/Type
Tue 09:25:29 PM 33.6667 -84.5167 North 233 268 3,300  Level Atlanta TRACON
Tue 09:26:29 PM 33.7000 -84.5833 301° West 280 322 6,200 2,291 Climbing Atlanta TRACON
Tue 09:28:48 PM 33.8889 -84.6094 353° North 318 366 10,900 2,201 Climbing Atlanta Center
Tue 09:29:48 PM 33.9850 -84.6200 355° North 333 383 13,500 2,250 Climbing Atlanta Center
Tue 09:30:00 PM 34.0164 -84.2667 North  Level FlightAware Approximate
Tue 09:30:48 PM 34.0933 -84.6333 354° North 345 397 15,400  Level Atlanta Center
Tue 09:31:48 PM 34.2000 -84.6189 North 366 421 17,800 2,200 Climbing Atlanta Center
Tue 09:32:48 PM 34.3022 -84.5744 20° North 387 445 19,800 1,900 Climbing Atlanta Center
Tue 09:33:48 PM 34.4089 -84.5297 19° North 394 453 21,600 1,650 Climbing Atlanta Center
Tue 09:34:48 PM 34.5178 -84.4850 19° North 402 463 23,100 1,500 Climbing Atlanta Center
Tue 09:35:48 PM 34.6242 -84.4403 19° North 402 463 24,600 1,200 Climbing Atlanta Center
Tue 09:36:48 PM 34.7350 -84.3925 20° North 409 471 25,500 950 Climbing Atlanta Center
Tue 09:37:48 PM 34.8519 -84.3450 18° North 428 493 26,500 1,050 Climbing Atlanta Center
Tue 09:38:48 PM 34.9628 -84.2947 20° North 428 493 27,600 1,100 Climbing Atlanta Center
Tue 09:39:48 PM 35.0797 -84.2469 18° North 428 493 28,700 1,050 Climbing Atlanta Center
Tue 09:40:48 PM 35.1925 -84.1964 20° North 428 493 29,700 900 Climbing Atlanta Center
Tue 09:41:48 PM 35.3092 -84.1456 20° North 428 493 30,500 900 Climbing Atlanta Center
Tue 09:42:48 PM 35.4283 -84.0975 18° North 433 498 31,500 800 Climbing Atlanta Center
Tue 09:43:48 PM 35.5431 -84.0489 19° North 433 498 32,100 750 Climbing Atlanta Center
Tue 09:44:48 PM 35.6639 -83.9978 19° North 438 504 33,000 700 Climbing Atlanta Center
Tue 09:45:48 PM 35.7786 -83.9467 20° North 443 510 33,500 550 Climbing Atlanta Center
Tue 09:46:48 PM 35.8933 -83.8978 19° North 443 510 34,100 600 Climbing Atlanta Center
Tue 09:47:48 PM 36.0017 -83.8333 26° Northeast 435 501 34,700 450 Climbing Atlanta Center
Tue 09:48:48 PM 36.1100 -83.7636 27° Northeast 435 501 35,000 150 Climbing Atlanta Center
Tue 09:49:48 PM 36.2164 -83.6964 27° Northeast 425 489 35,000  Level Atlanta Center
Tue 09:50:54 PM 36.3167 -83.6303 28° Northeast 433 498 35,000  Level Indianapolis Center
Tue 09:51:55 PM 36.4458 -83.5492 27° Northeast 433 498 35,000  Level Indianapolis Center
Tue 09:52:56 PM 36.5558 -83.4794 27° Northeast 437 503 35,000  Level Indianapolis Center
Tue 09:53:58 PM 36.6606 -83.4058 29° Northeast 435 501 35,000  Level Indianapolis Center
Tue 09:54:59 PM 36.7556 -83.3147 38° Northeast 430 495 35,000  Level Indianapolis Center
Tue 09:56:00 PM 36.8508 -83.2233 37° Northeast 432 497 35,000  Level Indianapolis Center
Tue 09:57:02 PM 36.9372 -83.1217 43° Northeast 424 488 35,000  Level Indianapolis Center
Tue 09:58:03 PM 37.0206 -83.0092 47° Northeast 429 494 35,000  Level Indianapolis Center
Tue 09:59:04 PM 37.1025 -82.8933 48° Northeast 435 501 35,000  Level Indianapolis Center
Tue 10:00:06 PM 37.1836 -82.7794 48° Northeast 433 498 35,000  Level Indianapolis Center
Tue 10:01:07 PM 37.2642 -82.6658 48° Northeast 435 501 35,000  Level Indianapolis Center
Tue 10:02:08 PM 37.3450 -82.5519 48° Northeast 435 501 35,000  Level Indianapolis Center
Tue 10:03:10 PM 37.4258 -82.4394 48° Northeast 432 497 35,000  Level Indianapolis Center
Tue 10:04:11 PM 37.5050 -82.3261 49° Northeast 429 494 35,000  Level Indianapolis Center
Tue 10:05:12 PM 37.5842 -82.2128 49° Northeast 429 494 35,000  Level Indianapolis Center
Tue 10:06:14 PM 37.6772 -82.0825 48° Northeast 427 491 35,000  Level Indianapolis Center
Tue 10:07:15 PM 37.7547 -81.9686 49° Northeast 427 491 35,000  Level Indianapolis Center
Tue 10:08:16 PM 37.8347 -81.8542 48° Northeast 432 497 35,000  Level Indianapolis Center
Tue 10:09:18 PM 37.9014 -81.7531 50° Northeast 434 499 35,000  Level Indianapolis Center
Tue 10:10:19 PM 37.9433 -81.5764 73° East 443 510 35,000  Level Indianapolis Center
Tue 10:11:20 PM 37.9706 -81.4239 77° East 446 513 35,000  Level Indianapolis Center
Tue 10:12:22 PM 37.9975 -81.2725 77° East 443 510 35,000  Level Indianapolis Center
Tue 10:13:23 PM 38.0358 -81.1264 72° East 440 506 35,000  Level Indianapolis Center
Tue 10:14:24 PM 38.0817 -80.9839 68° East 439 505 35,000  Level Indianapolis Center
Tue 10:15:26 PM 38.1161 -80.8356 74° East 441 507 35,000  Level Indianapolis Center
Tue 10:16:27 PM 38.1531 -80.6889 72° East 439 505 35,000  Level Indianapolis Center
Tue 10:17:28 PM 38.1917 -80.5400 72° East 443 510 35,000  Level Indianapolis Center
Tue 10:18:30 PM 38.2342 -80.3631 73° East 439 505 35,000  Level Indianapolis Center
Tue 10:19:31 PM 38.2717 -80.2119 72° East 447 514 35,000  Level Indianapolis Center
Tue 10:20:31 PM 38.3061 -80.0822 71° East 435 501 35,000  Level Washington Center
Tue 10:21:31 PM 38.3450 -79.9336 72° East 435 501 35,000  Level Washington Center
Tue 10:22:32 PM 38.3836 -79.7847 72° East 435 501 35,000  Level Washington Center
Tue 10:23:32 PM 38.4467 -79.6506 59° Northeast 435 501 35,000  Level Washington Center
Tue 10:24:30 PM 38.5403 -79.5283 46° Northeast 429 494 35,000  Level Washington Center
Tue 10:25:31 PM 38.6272 -79.4239 43° Northeast 429 494 35,000  Level Washington Center
Tue 10:26:30 PM 38.7139 -79.3192 43° Northeast 429 494 35,000  Level Washington Center
Tue 10:27:30 PM 38.7881 -79.2139 48° Northeast 429 494 35,000  Level Washington Center
Tue 10:28:31 PM 38.8744 -79.1061 44° Northeast 423 487 35,000  Level Washington Center
Tue 10:29:30 PM 38.9611 -78.9981 44° Northeast 423 487 35,000  Level Washington Center
Tue 10:30:31 PM 39.0475 -78.8897 44° Northeast 423 487 35,000  Level Washington Center
Tue 10:31:32 PM 39.1317 -78.7814 45° Northeast 423 487 35,000  Level Washington Center
Tue 10:32:30 PM 39.2181 -78.6725 44° Northeast 423 487 35,000  Level Washington Center
Tue 10:34:48 PM 39.4231 -78.4119 44° Northeast 420 483 35,000  Level Cleveland Center
Tue 10:36:39 PM 39.5808 -78.2064 45° Northeast 447 514 35,000  Level New York Center
Tue 10:37:41 PM 39.6628 -78.0989 45° Northeast 441 507 35,000  Level New York Center
Tue 10:38:40 PM 39.7444 -77.9914 45° Northeast 430 495 35,000  Level New York Center
Tue 10:39:40 PM 39.8281 -77.8836 45° Northeast 425 489 35,000  Level New York Center
Tue 10:40:41 PM 39.9097 -77.7753 45° Northeast 425 489 35,000  Level New York Center
Tue 10:41:41 PM 39.9911 -77.6697 45° Northeast 419 482 35,000  Level New York Center
Tue 10:42:42 PM 40.0725 -77.5611 46° Northeast 414 476 35,000  Level New York Center
Tue 10:43:40 PM 40.1536 -77.4522 46° Northeast 414 476 35,000  Level New York Center
Tue 10:44:40 PM 40.2281 -77.3533 45° Northeast 414 476 35,000  Level New York Center
Tue 10:45:41 PM 40.3067 -77.2517 45° Northeast 414 476 35,000  Level New York Center
Tue 10:46:39 PM 40.3875 -77.1447 45° Northeast 409 471 35,000  Level New York Center
Tue 10:47:39 PM 40.4706 -77.0353 45° Northeast 414 476 35,000  Level New York Center
Tue 10:48:42 PM 40.5533 -76.9281 45° Northeast 414 476 35,000 -446 Level New York Center
Tue 10:49:40 PM 40.6469 -76.8461 34° Northeast 409 471 34,100 -1,613 Descending New York Center
Tue 10:50:41 PM 40.7475 -76.7592 33° Northeast 414 476 31,800 -2,083 Descending New York Center
Tue 10:51:41 PM 40.8475 -76.6719 33° Northeast 424 488 29,900 -1,412 Descending New York Center
Tue 10:52:40 PM 40.9522 -76.5819 33° Northeast 434 499 29,000 -458 Descending New York Center
Tue 10:53:39 PM 41.0542 -76.4969 32° Northeast 434 499 29,000  Level New York Center
Tue 10:54:40 PM 41.1564 -76.4067 34° Northeast 434 499 29,000  Level New York Center
Tue 10:55:41 PM 41.2544 -76.3181 34° Northeast 429 494 29,000 -942 Level New York Center
Tue 10:56:41 PM 41.3756 -76.2203 31° Northeast 449 517 27,100 -1,800 Descending New York Center
Tue 10:57:41 PM 41.4822 -76.1208 35° Northeast 461 531 25,400 -1,033 Descending New York Center
Tue 10:59:41 PM 41.6875 -75.9403 33° Northeast 451 519 24,000 -467 Descending Boston Center
Tue 11:00:41 PM 41.7861 -75.8511 34° Northeast 445 512 24,000  Level Boston Center
Tue 11:01:41 PM 41.8889 -75.7617 33° Northeast 440 506 24,000  Level Boston Center
Tue 11:02:41 PM 41.9897 -75.6692 34° Northeast 435 501 24,000  Level Boston Center
Tue 11:03:41 PM 42.0881 -75.5792 34° Northeast 430 495 24,000  Level Boston Center
Tue 11:04:41 PM 42.1644 -75.4569 50° Northeast 414 476 24,000 -100 Level Boston Center
Tue 11:05:41 PM 42.2183 -75.3081 64° Northeast 425 489 23,800 -900 Descending Boston Center
Tue 11:06:41 PM 42.2697 -75.1617 65° Northeast 425 489 22,200 -2,050 Descending Boston Center
Tue 11:07:41 PM 42.3142 -75.0428 63° Northeast 420 483 19,700 -2,450 Descending Boston Center
Tue 11:08:41 PM 42.3656 -74.8989 64° Northeast 420 483 17,300 -2,350 Descending Boston Center
Tue 11:09:41 PM 42.4144 -74.7489 66° East 415 478 15,000 -2,200 Descending Boston Center
Tue 11:10:41 PM 42.4564 -74.6294 65° Northeast 396 456 12,900 -2,050 Descending Boston Center
Tue 11:11:41 PM 42.5047 -74.4961 64° Northeast 377 434 10,900 -1,400 Descending Boston Center
Tue 11:12:41 PM 42.5586 -74.4019 52° Northeast 343 395 10,100 -1,050 Descending Boston Center
Tue 11:13:41 PM 42.6164 -74.3078 50° Northeast 301 346 8,800 -1,400 Descending Boston Center
Tue 11:14:41 PM 42.6636 -74.2303 50° Northeast 294 338 7,300 -1,550 Descending Boston Center
Tue 11:15:41 PM 42.7211 -74.1358 50° Northeast 289 333 5,700 -1,450 Descending Boston Center
Tue 11:16:41 PM 42.7681 -74.0664 47° Northeast 289 333 4,400 -1,150 Descending Boston Center
Tue 11:17:41 PM 42.8150 -73.9911 50° Northeast 271 312 3,400 -700 Descending Boston Center
Tue 11:18:41 PM 42.8683 -73.9075 49° Northeast 266 306 3,000 -636 Descending Boston Center
Tue 11:19:53 PM 42.8731 -73.8453 84° East 194 223 2,000 -455 Descending Boston Center
Tue 11:20:53 PM 42.8553 -73.7797 110° East 160 184 2,000 -484 Level Boston Center
Tue 11:21:57 PM 42.7922 -73.8094 199° South 121 139 1,000 -938 Descending Boston Center
Tue 11:25:00 PM 42.7491 -73.8020 192° South  Level Estimated
Tue 11:32:00 PM 42.7491 -73.8020 192° South  Level Estimated
Tue 11:33:00 PM 42.7491 -73.8020 192° South  Level Estimated

Login

Don't have an account? Register now (free) for customized features, flight alerts, and more!